Chie Maru No.10 — JD2376 — position and weather

sailwx.info

Track history (hours):
 
Tides and Currents Weather Stations Pressure Air Temp Water Temp Dewpoint Dewpoint Depression Visibility Wind Speed Wind Dir Waves Ship Positions

Chie Maru No.10

Last reported at 2018-Feb-23 16:29 UTC. Time now 2018-Feb-23 16:51 UTC.
Position N 34°57' E 136°45'.

Length 72 m; draft 3.8 m.

Type: Ship. MMSI: 431000147.

Date/timePositionNaut miles runAvg speedWind from/ knotsBaromVisibWave heightAir tempDewpointWater temp
2018-Feb-23 16:29N 34°57' E 136°45'0 0.0
2018-Feb-23 15:59N 34°57' E 136°45'0 0.0
2018-Feb-23 15:29N 34°57' E 136°45'0 0.0
2018-Feb-23 15:00N 34°57' E 136°45'4 7.9
2018-Feb-23 14:30N 34°53' E 136°47'612.2
2018-Feb-23 14:00N 34°47' E 136°48'1912.3
2018-Feb-23 12:29N 34°33' E 137°03'612.5
2018-Feb-23 12:00N 34°33' E 137°10'711.9
2018-Feb-23 11:25N 34°34' E 137°18'4710.7
2018-Feb-23 07:02N 34°34' E 138°16'110.4
2018-Feb-23 06:58N 34°35' E 138°16'511.8
2018-Feb-23 06:30N 34°40' E 138°18'612.1
2018-Feb-23 05:58N 34°46' E 138°19'1 0.4
2018-Feb-23 02:48N 34°47' E 138°18'0 0.0
2018-Feb-23 01:27N 34°47' E 138°18'0 0.3
2018-Feb-23 01:00N 34°47' E 138°18'0 0.7
2018-Feb-23 00:28N 34°47' E 138°18'1 0.3
2018-Feb-22 21:31N 34°46' E 138°19'0 0.0
2018-Feb-22 19:38N 34°46' E 138°19'0 1.1
2018-Feb-22 19:29N 34°46' E 138°19'511.1
2018-Feb-22 19:00N 34°44' E 138°25'712.3
2018-Feb-22 18:28N 34°41' E 138°32'612.8
2018-Feb-22 17:59N 34°38' E 138°39'813.0
2018-Feb-22 17:20N 34°35' E 138°49'511.8
2018-Feb-22 16:57N 34°36' E 138°54'711.5
2018-Feb-22 16:18N 34°40' E 139°01'412.7
2018-Feb-22 16:00N 34°43' E 139°05'712.4
2018-Feb-22 15:28N 34°47' E 139°11'1011.9
2018-Feb-22 14:36N 34°52' E 139°22'412.0
2018-Feb-22 14:17N 34°55' E 139°25'511.8
2018-Feb-22 13:50N 34°58' E 139°30'411.7
2018-Feb-22 13:30N 35°01' E 139°33'612.3
2018-Feb-22 13:00N 35°05' E 139°39'612.3
2018-Feb-22 12:30N 35°09' E 139°44'611.9
2018-Feb-22 12:00N 35°15' E 139°46'611.8
2018-Feb-22 11:30N 35°20' E 139°42'611.1
2018-Feb-22 11:00N 35°25' E 139°45'612.1
2018-Feb-22 10:31N 35°29' E 139°50'611.9
2018-Feb-22 10:00N 35°32' E 139°57'5 9.9
2018-Feb-22 09:30N 35°32' E 140°03'0 0.3
2018-Feb-22 08:59N 35°32' E 140°03'0 0.0
2018-Feb-22 08:31N 35°32' E 140°03'0 0.0
2018-Feb-22 08:00N 35°32' E 140°03'0 0.0
2018-Feb-22 07:30N 35°32' E 140°03'0 0.0
2018-Feb-22 07:00N 35°32' E 140°03'0 0.0
2018-Feb-22 06:30N 35°32' E 140°03'0 0.0
2018-Feb-22 06:00N 35°32' E 140°03'0 0.0
2018-Feb-22 05:30N 35°32' E 140°03'0 0.0
2018-Feb-22 05:00N 35°32' E 140°03'0 0.0
2018-Feb-22 04:30N 35°32' E 140°03'0 0.0
2018-Feb-22 04:00N 35°32' E 140°03'0 0.0
2018-Feb-22 03:30N 35°32' E 140°03'0 0.0
2018-Feb-22 03:00N 35°32' E 140°03'0 0.0
2018-Feb-22 02:30N 35°32' E 140°03'0 0.0
2018-Feb-22 02:00N 35°32' E 140°03'2 3.6
2018-Feb-22 01:30N 35°33' E 140°02'4 7.3
2018-Feb-22 01:00N 35°36' E 139°59'2 0.1
2018-Feb-21 01:51N 35°38' E 139°59'3 2.1
2018-Feb-21 00:26N 35°41' E 139°56'0 0.0
2018-Feb-20 23:58N 35°41' E 139°56'0 0.0
2018-Feb-20 22:59N 35°41' E 139°56'0 0.0
2018-Feb-20 22:26N 35°41' E 139°56'2 4.2
2018-Feb-20 21:59N 35°39' E 139°58'5 8.1
2018-Feb-20 21:25N 35°35' E 139°55'0 0.0
2018-Feb-20 19:30N 35°35' E 139°55'0 0.1
2018-Feb-20 18:59N 35°35' E 139°55'5 9.7
2018-Feb-20 18:30N 35°31' E 139°53'611.3
2018-Feb-20 18:00N 35°26' E 139°49'511.0
2018-Feb-20 17:30N 35°22' E 139°45'510.1
2018-Feb-20 17:00N 35°17' E 139°46'510.3
2018-Feb-20 16:31N 35°11' E 139°47'611.7
2018-Feb-20 16:00N 35°06' E 139°45'19 0.6
2018-Feb-19 10:24N 34°58' E 140°07'613.1
2018-Feb-19 09:59N 34°55' E 140°01'1914.2
2018-Feb-19 08:40N 34°51' E 139°39'313.3
2018-Feb-19 08:28N 34°51' E 139°35'612.6
2018-Feb-19 08:00N 34°50' E 139°28'1112.4
2018-Feb-19 07:08N 34°46' E 139°16'213.8
2018-Feb-19 06:59N 34°45' E 139°14'613.1
2018-Feb-19 06:30N 34°41' E 139°08'712.9
2018-Feb-19 05:56N 34°37' E 139°00'712.9
2018-Feb-19 05:23N 34°35' E 138°52'512.0
2018-Feb-19 05:00N 34°36' E 138°47'611.9
2018-Feb-19 04:30N 34°38' E 138°40'611.9
2018-Feb-19 04:00N 34°40' E 138°33'712.3
2018-Feb-19 03:27N 34°43' E 138°26'612.6
2018-Feb-19 02:59N 34°46' E 138°20'2 3.6
2018-Feb-19 02:30N 34°47' E 138°18'0 0.0
2018-Feb-19 01:45N 34°47' E 138°18'0 0.0
2018-Feb-19 01:29N 34°47' E 138°18'0 0.0
2018-Feb-19 00:01N 34°47' E 138°18'0 0.0
2018-Feb-18 23:57N 34°47' E 138°18'0 0.0
2018-Feb-18 22:30N 34°47' E 138°18'1 2.6
2018-Feb-18 21:58N 34°47' E 138°19'0 0.2
2018-Feb-18 21:20N 34°47' E 138°19'0 0.0
2018-Feb-18 20:59N 34°47' E 138°19'0 0.0
2018-Feb-18 20:29N 34°47' E 138°19'0 0.0
2018-Feb-18 19:59N 34°47' E 138°19'1 1.4
2018-Feb-18 19:29N 34°46' E 138°20'511.3
2018-Feb-18 19:00N 34°44' E 138°26'611.6
2018-Feb-18 18:30N 34°41' E 138°32'811.8
2018-Feb-18 17:49N 34°38' E 138°41'611.7
2018-Feb-18 17:16N 34°35' E 138°48'410.7
2018-Feb-18 16:53N 34°36' E 138°53'510.1
2018-Feb-18 16:23N 34°38' E 138°59'410.7
2018-Feb-18 16:00N 34°41' E 139°02'711.0
2018-Feb-18 15:22N 34°44' E 139°10'410.2
2018-Feb-18 15:01N 34°46' E 139°14'45 1.6
2018-Feb-17 09:53N 34°58' E 140°07'511.6
2018-Feb-17 09:30N 34°56' E 140°02'1211.9
2018-Feb-17 08:27N 34°52' E 139°48'913.0
2018-Feb-17 07:48N 34°51' E 139°37'513.8
2018-Feb-17 07:28N 34°51' E 139°32'613.4
2018-Feb-17 06:58N 34°50' E 139°24'714.0
2018-Feb-17 06:27N 34°47' E 139°16'913.7
2018-Feb-17 05:48N 34°42' E 139°07'412.8
2018-Feb-17 05:30N 34°39' E 139°03'712.5
2018-Feb-17 04:58N 34°36' E 138°57'613.0
2018-Feb-17 04:30N 34°35' E 138°49'712.8
2018-Feb-17 03:59N 34°36' E 138°41'613.3
2018-Feb-17 03:31N 34°38' E 138°34'713.0
2018-Feb-17 03:00N 34°39' E 138°26'610.8
2018-Feb-17 02:28N 34°43' E 138°21'510.0
2018-Feb-17 02:00N 34°47' E 138°18'0 0.1
2018-Feb-17 00:05N 34°47' E 138°18'0 0.0
2018-Feb-16 22:56N 34°47' E 138°18'0 0.0
2018-Feb-16 22:23N 34°47' E 138°18'1 3.4
2018-Feb-16 22:00N 34°47' E 138°19'0 0.4
2018-Feb-16 21:23N 34°46' E 138°19'0 0.1
2018-Feb-16 20:57N 34°46' E 138°19'510.2
2018-Feb-16 20:28N 34°41' E 138°19'612.0
2018-Feb-16 19:58N 34°36' E 138°18'612.0
2018-Feb-16 19:30N 34°33' E 138°11'712.8
2018-Feb-16 18:58N 34°33' E 138°03'15310.4
2018-Feb-16 04:16N 33°47' E 135°07'512.4
2018-Feb-16 03:52N 33°51' E 135°03'512.2
2018-Feb-16 03:28N 33°56' E 135°02'612.6
2018-Feb-16 03:00N 34°02' E 135°02'612.2
2018-Feb-16 02:31N 34°07' E 135°04'3 5.8
2018-Feb-16 02:00N 34°07' E 135°08'0 0.0
2018-Feb-16 01:30N 34°07' E 135°08'0 0.0
2018-Feb-16 01:00N 34°07' E 135°08'0 0.0
2018-Feb-16 00:30N 34°07' E 135°08'0 0.0
2018-Feb-16 00:00N 34°07' E 135°08'0 0.0
2018-Feb-15 23:29N 34°07' E 135°08'0 0.0
2018-Feb-15 23:00N 34°07' E 135°08'0 0.0
2018-Feb-15 22:30N 34°07' E 135°08'0 0.0
2018-Feb-15 22:00N 34°07' E 135°08'0 1.0
2018-Feb-15 21:30N 34°07' E 135°08'0 0.1
2018-Feb-15 21:00N 34°07' E 135°08'0 0.0
2018-Feb-15 20:30N 34°07' E 135°08'0 0.0
2018-Feb-15 20:00N 34°07' E 135°08'0 0.0
2018-Feb-15 19:30N 34°07' E 135°08'0 0.0
2018-Feb-15 19:00N 34°07' E 135°08'0 0.0
2018-Feb-15 18:30N 34°07' E 135°08'0 0.0
2018-Feb-15 18:00N 34°07' E 135°08'0 0.0
2018-Feb-15 17:30N 34°07' E 135°08'0 0.1
2018-Feb-15 17:00N 34°07' E 135°08'0 0.0
2018-Feb-15 16:30N 34°07' E 135°08'0 0.0
2018-Feb-15 16:00N 34°07' E 135°08'0 0.1
2018-Feb-15 15:30N 34°07' E 135°08'0 0.0
2018-Feb-15 15:00N 34°07' E 135°08'0 0.1
2018-Feb-15 14:30N 34°07' E 135°08'0 0.0
2018-Feb-15 14:00N 34°07' E 135°08'0 0.0
2018-Feb-15 13:30N 34°07' E 135°08'0 0.0
2018-Feb-15 13:00N 34°07' E 135°08'0 0.0
2018-Feb-15 12:30N 34°07' E 135°08'0 0.0
2018-Feb-15 12:00N 34°07' E 135°08'0 0.0
2018-Feb-15 11:30N 34°07' E 135°08'0 0.0
2018-Feb-15 11:00N 34°07' E 135°08'0 0.0
2018-Feb-15 10:30N 34°07' E 135°08'0 0.1
2018-Feb-15 10:00N 34°07' E 135°08'0 0.0
2018-Feb-15 09:30N 34°07' E 135°08'611.1
2018-Feb-15 09:00N 34°08' E 135°01'612.6
2018-Feb-15 08:30N 34°07' E 134°53'612.3
2018-Feb-15 08:00N 34°09' E 134°46'612.4
2018-Feb-15 07:30N 34°13' E 134°40'611.9
2018-Feb-15 07:00N 34°17' E 134°35'712.7
2018-Feb-15 06:29N 34°19' E 134°27'21 1.0
2018-Feb-14 09:31N 34°27' E 134°03'912.9
2018-Feb-14 08:48N 34°24' E 134°14'512.2
2018-Feb-14 08:26N 34°25' E 134°20'511.9
2018-Feb-14 08:00N 34°27' E 134°25'611.8
2018-Feb-14 07:30N 34°29' E 134°32'611.4
2018-Feb-14 07:00N 34°31' E 134°38'611.3
2018-Feb-14 06:30N 34°33' E 134°45'510.9
2018-Feb-14 06:00N 34°35' E 134°51'510.0
2018-Feb-14 05:30N 34°37' E 134°57'4 8.8
2018-Feb-14 05:00N 34°37' E 135°02'4 8.5
2018-Feb-14 04:30N 34°33' E 135°05'611.6
2018-Feb-14 04:00N 34°28' E 135°03'611.4
2018-Feb-14 03:30N 34°22' E 135°02'510.6
2018-Feb-14 03:00N 34°17' E 134°59'611.6
2018-Feb-14 02:30N 34°12' E 134°60'611.8
2018-Feb-14 02:00N 34°06' E 135°00'611.8
2018-Feb-14 01:30N 33°60' E 135°00'611.6
2018-Feb-14 01:01N 33°54' E 135°01'  
Track history (hours):
 
Tides and Currents Weather Stations Pressure Air Temp Water Temp Dewpoint Dewpoint Depression Visibility Wind Speed Wind Dir Waves Ship Positions

Chie Maru No.10

Last reported at 2018-Feb-23 16:29 UTC. Time now 2018-Feb-23 16:51 UTC.
Position N 34°57' E 136°45'.

Length 72 m; draft 3.8 m.

Type: Ship. MMSI: 431000147.

Date/timePositionNaut miles runAvg speedWind from/ knotsBaromVisibWave heightAir tempDewpointWater temp
2018-Feb-23 16:29N 34°57' E 136°45'0 0.0
2018-Feb-23 15:59N 34°57' E 136°45'0 0.0
2018-Feb-23 15:29N 34°57' E 136°45'0 0.0
2018-Feb-23 15:00N 34°57' E 136°45'4 7.9
2018-Feb-23 14:30N 34°53' E 136°47'612.2
2018-Feb-23 14:00N 34°47' E 136°48'1912.3
2018-Feb-23 12:29N 34°33' E 137°03'612.5
2018-Feb-23 12:00N 34°33' E 137°10'711.9
2018-Feb-23 11:25N 34°34' E 137°18'4710.7
2018-Feb-23 07:02N 34°34' E 138°16'110.4
2018-Feb-23 06:58N 34°35' E 138°16'511.8
2018-Feb-23 06:30N 34°40' E 138°18'612.1
2018-Feb-23 05:58N 34°46' E 138°19'1 0.4
2018-Feb-23 02:48N 34°47' E 138°18'0 0.0
2018-Feb-23 01:27N 34°47' E 138°18'0 0.3
2018-Feb-23 01:00N 34°47' E 138°18'0 0.7
2018-Feb-23 00:28N 34°47' E 138°18'1 0.3
2018-Feb-22 21:31N 34°46' E 138°19'0 0.0
2018-Feb-22 19:38N 34°46' E 138°19'0 1.1
2018-Feb-22 19:29N 34°46' E 138°19'511.1
2018-Feb-22 19:00N 34°44' E 138°25'712.3
2018-Feb-22 18:28N 34°41' E 138°32'612.8
2018-Feb-22 17:59N 34°38' E 138°39'813.0
2018-Feb-22 17:20N 34°35' E 138°49'511.8
2018-Feb-22 16:57N 34°36' E 138°54'711.5
2018-Feb-22 16:18N 34°40' E 139°01'412.7
2018-Feb-22 16:00N 34°43' E 139°05'712.4
2018-Feb-22 15:28N 34°47' E 139°11'1011.9
2018-Feb-22 14:36N 34°52' E 139°22'412.0
2018-Feb-22 14:17N 34°55' E 139°25'511.8
2018-Feb-22 13:50N 34°58' E 139°30'411.7
2018-Feb-22 13:30N 35°01' E 139°33'612.3
2018-Feb-22 13:00N 35°05' E 139°39'612.3
2018-Feb-22 12:30N 35°09' E 139°44'611.9
2018-Feb-22 12:00N 35°15' E 139°46'611.8
2018-Feb-22 11:30N 35°20' E 139°42'611.1
2018-Feb-22 11:00N 35°25' E 139°45'612.1
2018-Feb-22 10:31N 35°29' E 139°50'611.9
2018-Feb-22 10:00N 35°32' E 139°57'5 9.9
2018-Feb-22 09:30N 35°32' E 140°03'0 0.3
2018-Feb-22 08:59N 35°32' E 140°03'0 0.0
2018-Feb-22 08:31N 35°32' E 140°03'0 0.0
2018-Feb-22 08:00N 35°32' E 140°03'0 0.0
2018-Feb-22 07:30N 35°32' E 140°03'0 0.0
2018-Feb-22 07:00N 35°32' E 140°03'0 0.0
2018-Feb-22 06:30N 35°32' E 140°03'0 0.0
2018-Feb-22 06:00N 35°32' E 140°03'0 0.0
2018-Feb-22 05:30N 35°32' E 140°03'0 0.0
2018-Feb-22 05:00N 35°32' E 140°03'0 0.0
2018-Feb-22 04:30N 35°32' E 140°03'0 0.0
2018-Feb-22 04:00N 35°32' E 140°03'0 0.0
2018-Feb-22 03:30N 35°32' E 140°03'0 0.0
2018-Feb-22 03:00N 35°32' E 140°03'0 0.0
2018-Feb-22 02:30N 35°32' E 140°03'0 0.0
2018-Feb-22 02:00N 35°32' E 140°03'2 3.6
2018-Feb-22 01:30N 35°33' E 140°02'4 7.3
2018-Feb-22 01:00N 35°36' E 139°59'2 0.1
2018-Feb-21 01:51N 35°38' E 139°59'3 2.1
2018-Feb-21 00:26N 35°41' E 139°56'0 0.0
2018-Feb-20 23:58N 35°41' E 139°56'0 0.0
2018-Feb-20 22:59N 35°41' E 139°56'0 0.0
2018-Feb-20 22:26N 35°41' E 139°56'2 4.2
2018-Feb-20 21:59N 35°39' E 139°58'5 8.1
2018-Feb-20 21:25N 35°35' E 139°55'0 0.0
2018-Feb-20 19:30N 35°35' E 139°55'0 0.1
2018-Feb-20 18:59N 35°35' E 139°55'5 9.7
2018-Feb-20 18:30N 35°31' E 139°53'611.3
2018-Feb-20 18:00N 35°26' E 139°49'511.0
2018-Feb-20 17:30N 35°22' E 139°45'510.1
2018-Feb-20 17:00N 35°17' E 139°46'510.3
2018-Feb-20 16:31N 35°11' E 139°47'611.7
2018-Feb-20 16:00N 35°06' E 139°45'19 0.6
2018-Feb-19 10:24N 34°58' E 140°07'613.1
2018-Feb-19 09:59N 34°55' E 140°01'1914.2
2018-Feb-19 08:40N 34°51' E 139°39'313.3
2018-Feb-19 08:28N 34°51' E 139°35'612.6
2018-Feb-19 08:00N 34°50' E 139°28'1112.4
2018-Feb-19 07:08N 34°46' E 139°16'213.8
2018-Feb-19 06:59N 34°45' E 139°14'613.1
2018-Feb-19 06:30N 34°41' E 139°08'712.9
2018-Feb-19 05:56N 34°37' E 139°00'712.9
2018-Feb-19 05:23N 34°35' E 138°52'512.0
2018-Feb-19 05:00N 34°36' E 138°47'611.9
2018-Feb-19 04:30N 34°38' E 138°40'611.9
2018-Feb-19 04:00N 34°40' E 138°33'712.3
2018-Feb-19 03:27N 34°43' E 138°26'612.6
2018-Feb-19 02:59N 34°46' E 138°20'2 3.6
2018-Feb-19 02:30N 34°47' E 138°18'0 0.0
2018-Feb-19 01:45N 34°47' E 138°18'0 0.0
2018-Feb-19 01:29N 34°47' E 138°18'0 0.0
2018-Feb-19 00:01N 34°47' E 138°18'0 0.0
2018-Feb-18 23:57N 34°47' E 138°18'0 0.0
2018-Feb-18 22:30N 34°47' E 138°18'1 2.6
2018-Feb-18 21:58N 34°47' E 138°19'0 0.2
2018-Feb-18 21:20N 34°47' E 138°19'0 0.0
2018-Feb-18 20:59N 34°47' E 138°19'0 0.0
2018-Feb-18 20:29N 34°47' E 138°19'0 0.0
2018-Feb-18 19:59N 34°47' E 138°19'1 1.4
2018-Feb-18 19:29N 34°46' E 138°20'511.3
2018-Feb-18 19:00N 34°44' E 138°26'611.6
2018-Feb-18 18:30N 34°41' E 138°32'811.8
2018-Feb-18 17:49N 34°38' E 138°41'611.7
2018-Feb-18 17:16N 34°35' E 138°48'410.7
2018-Feb-18 16:53N 34°36' E 138°53'510.1
2018-Feb-18 16:23N 34°38' E 138°59'410.7
2018-Feb-18 16:00N 34°41' E 139°02'711.0
2018-Feb-18 15:22N 34°44' E 139°10'410.2
2018-Feb-18 15:01N 34°46' E 139°14'45 1.6
2018-Feb-17 09:53N 34°58' E 140°07'511.6
2018-Feb-17 09:30N 34°56' E 140°02'1211.9
2018-Feb-17 08:27N 34°52' E 139°48'913.0
2018-Feb-17 07:48N 34°51' E 139°37'513.8
2018-Feb-17 07:28N 34°51' E 139°32'613.4
2018-Feb-17 06:58N 34°50' E 139°24'714.0
2018-Feb-17 06:27N 34°47' E 139°16'913.7
2018-Feb-17 05:48N 34°42' E 139°07'412.8
2018-Feb-17 05:30N 34°39' E 139°03'712.5
2018-Feb-17 04:58N 34°36' E 138°57'613.0
2018-Feb-17 04:30N 34°35' E 138°49'712.8
2018-Feb-17 03:59N 34°36' E 138°41'613.3
2018-Feb-17 03:31N 34°38' E 138°34'713.0
2018-Feb-17 03:00N 34°39' E 138°26'610.8
2018-Feb-17 02:28N 34°43' E 138°21'510.0
2018-Feb-17 02:00N 34°47' E 138°18'0 0.1
2018-Feb-17 00:05N 34°47' E 138°18'0 0.0
2018-Feb-16 22:56N 34°47' E 138°18'0 0.0
2018-Feb-16 22:23N 34°47' E 138°18'1 3.4
2018-Feb-16 22:00N 34°47' E 138°19'0 0.4
2018-Feb-16 21:23N 34°46' E 138°19'0 0.1
2018-Feb-16 20:57N 34°46' E 138°19'510.2
2018-Feb-16 20:28N 34°41' E 138°19'612.0
2018-Feb-16 19:58N 34°36' E 138°18'612.0
2018-Feb-16 19:30N 34°33' E 138°11'712.8
2018-Feb-16 18:58N 34°33' E 138°03'15310.4
2018-Feb-16 04:16N 33°47' E 135°07'512.4
2018-Feb-16 03:52N 33°51' E 135°03'512.2
2018-Feb-16 03:28N 33°56' E 135°02'612.6
2018-Feb-16 03:00N 34°02' E 135°02'612.2
2018-Feb-16 02:31N 34°07' E 135°04'3 5.8
2018-Feb-16 02:00N 34°07' E 135°08'0 0.0
2018-Feb-16 01:30N 34°07' E 135°08'0 0.0
2018-Feb-16 01:00N 34°07' E 135°08'0 0.0
2018-Feb-16 00:30N 34°07' E 135°08'0 0.0
2018-Feb-16 00:00N 34°07' E 135°08'0 0.0
2018-Feb-15 23:29N 34°07' E 135°08'0 0.0
2018-Feb-15 23:00N 34°07' E 135°08'0 0.0
2018-Feb-15 22:30N 34°07' E 135°08'0 0.0
2018-Feb-15 22:00N 34°07' E 135°08'0 1.0
2018-Feb-15 21:30N 34°07' E 135°08'0 0.1
2018-Feb-15 21:00N 34°07' E 135°08'0 0.0
2018-Feb-15 20:30N 34°07' E 135°08'0 0.0
2018-Feb-15 20:00N 34°07' E 135°08'0 0.0
2018-Feb-15 19:30N 34°07' E 135°08'0 0.0
2018-Feb-15 19:00N 34°07' E 135°08'0 0.0
2018-Feb-15 18:30N 34°07' E 135°08'0 0.0
2018-Feb-15 18:00N 34°07' E 135°08'0 0.0
2018-Feb-15 17:30N 34°07' E 135°08'0 0.1
2018-Feb-15 17:00N 34°07' E 135°08'0 0.0
2018-Feb-15 16:30N 34°07' E 135°08'0 0.0
2018-Feb-15 16:00N 34°07' E 135°08'0 0.1
2018-Feb-15 15:30N 34°07' E 135°08'0 0.0
2018-Feb-15 15:00N 34°07' E 135°08'0 0.1
2018-Feb-15 14:30N 34°07' E 135°08'0 0.0
2018-Feb-15 14:00N 34°07' E 135°08'0 0.0
2018-Feb-15 13:30N 34°07' E 135°08'0 0.0
2018-Feb-15 13:00N 34°07' E 135°08'0 0.0
2018-Feb-15 12:30N 34°07' E 135°08'0 0.0
2018-Feb-15 12:00N 34°07' E 135°08'0 0.0
2018-Feb-15 11:30N 34°07' E 135°08'0 0.0
2018-Feb-15 11:00N 34°07' E 135°08'0 0.0
2018-Feb-15 10:30N 34°07' E 135°08'0 0.1
2018-Feb-15 10:00N 34°07' E 135°08'0 0.0
2018-Feb-15 09:30N 34°07' E 135°08'611.1
2018-Feb-15 09:00N 34°08' E 135°01'612.6
2018-Feb-15 08:30N 34°07' E 134°53'612.3
2018-Feb-15 08:00N 34°09' E 134°46'612.4
2018-Feb-15 07:30N 34°13' E 134°40'611.9
2018-Feb-15 07:00N 34°17' E 134°35'712.7
2018-Feb-15 06:29N 34°19' E 134°27'21 1.0
2018-Feb-14 09:31N 34°27' E 134°03'912.9
2018-Feb-14 08:48N 34°24' E 134°14'512.2
2018-Feb-14 08:26N 34°25' E 134°20'511.9
2018-Feb-14 08:00N 34°27' E 134°25'611.8
2018-Feb-14 07:30N 34°29' E 134°32'611.4
2018-Feb-14 07:00N 34°31' E 134°38'611.3
2018-Feb-14 06:30N 34°33' E 134°45'510.9
2018-Feb-14 06:00N 34°35' E 134°51'510.0
2018-Feb-14 05:30N 34°37' E 134°57'4 8.8
2018-Feb-14 05:00N 34°37' E 135°02'4 8.5
2018-Feb-14 04:30N 34°33' E 135°05'611.6
2018-Feb-14 04:00N 34°28' E 135°03'611.4
2018-Feb-14 03:30N 34°22' E 135°02'510.6
2018-Feb-14 03:00N 34°17' E 134°59'611.6
2018-Feb-14 02:30N 34°12' E 134°60'611.8
2018-Feb-14 02:00N 34°06' E 135°00'611.8
2018-Feb-14 01:30N 33°60' E 135°00'611.6
2018-Feb-14 01:01N 33°54' E 135°01'  

Dump ship's entire track history